Clipper City — WDE8676 — position and weather

sailwx.info

Track history (hours):
 
Tides and Currents Weather Stations Pressure Air Temp Water Temp Dewpoint Dewpoint Depression Visibility Wind Speed Wind Dir Waves Ship Positions

Clipper City

Owner: ESV Sailing LLC - Manhattan By Sail, New York, NY. More information available from US FCC via Universal Licensing System and Coast Guard Vessel Documentation Center.

Last reported at 2017-Sep-20 17:12 UTC. Time now 2017-Sep-21 15:42 UTC.
Position N 40°42' W 074°01'.

Length 35 m.

Type: Sailing vessel. MMSI: 367408230.

Date/timePositionNaut miles runAvg speedWind from/ knotsBaromVisibWave heightAir tempDewpointWater temp
2017-Sep-20 17:12N 40°42' W 074°01'1 3.0
2017-Sep-20 17:00N 40°42' W 074°00'2 4.8
2017-Sep-20 16:30N 40°44' W 074°01'1 1.2
2017-Sep-20 16:00N 40°44' W 074°01'2 2.9
2017-Sep-20 15:28N 40°42' W 074°01'0 0.0
2017-Sep-20 14:58N 40°42' W 074°01'0 0.0
2017-Sep-19 23:16N 40°42' W 074°01'1 2.5
2017-Sep-19 23:00N 40°42' W 074°02'1 1.3
2017-Sep-19 22:30N 40°42' W 074°01'0 0.0
2017-Sep-19 22:00N 40°42' W 074°01'0 0.0
2017-Sep-19 21:30N 40°42' W 074°01'0 0.0
2017-Sep-19 21:00N 40°42' W 074°01'0 0.0
2017-Sep-19 20:30N 40°42' W 074°01'0 0.0
2017-Sep-19 20:00N 40°42' W 074°01'1 1.8
2017-Sep-19 19:30N 40°42' W 074°02'1 1.5
2017-Sep-19 18:54N 40°41' W 074°02'2 4.1
2017-Sep-19 18:30N 40°42' W 074°01'0 0.8
2017-Sep-19 17:59N 40°42' W 074°01'0 0.0
2017-Sep-19 17:26N 40°42' W 074°01'0 0.0
2017-Sep-19 01:35N 40°42' W 074°01'0 0.9
2017-Sep-19 01:29N 40°42' W 074°01'1 1.3
2017-Sep-19 01:00N 40°42' W 074°02'1 2.3
2017-Sep-19 00:30N 40°41' W 074°02'0 0.3
2017-Sep-18 23:59N 40°41' W 074°02'1 2.4
2017-Sep-18 23:30N 40°42' W 074°02'0 0.8
2017-Sep-18 22:53N 40°42' W 074°01'0 0.0
2017-Sep-18 22:29N 40°42' W 074°01'0 0.5
2017-Sep-18 22:00N 40°42' W 074°01'1 1.7
2017-Sep-18 21:30N 40°41' W 074°01'1 2.6
2017-Sep-18 21:00N 40°41' W 074°02'2 2.8
2017-Sep-18 20:28N 40°42' W 074°01'0 0.0
2017-Sep-18 19:58N 40°42' W 074°01'1 1.4
2017-Sep-18 19:30N 40°42' W 074°00'2 3.3
2017-Sep-18 19:00N 40°41' W 074°02'1 2.9
2017-Sep-18 18:30N 40°42' W 074°01'0 0.4
2017-Sep-18 17:59N 40°42' W 074°01'0 0.0
2017-Sep-18 17:30N 40°42' W 074°01'2 2.8
2017-Sep-18 16:58N 40°41' W 074°02'2 3.2
2017-Sep-18 16:30N 40°42' W 074°01'1 1.4
2017-Sep-18 16:00N 40°41' W 074°01'1 1.8
2017-Sep-18 15:30N 40°42' W 074°01'1 0.9
2017-Sep-18 14:58N 40°42' W 074°01'0 0.0
2017-Sep-18 00:30N 40°42' W 074°01'1 1.6
2017-Sep-18 00:00N 40°43' W 074°01'1 2.2
2017-Sep-17 23:30N 40°42' W 074°02'1 1.1
2017-Sep-17 23:00N 40°42' W 074°01'1 1.2
2017-Sep-17 22:29N 40°42' W 074°01'0 0.0
2017-Sep-17 21:58N 40°42' W 074°01'1 1.5
2017-Sep-17 21:30N 40°42' W 074°02'1 1.8
2017-Sep-17 20:59N 40°41' W 074°02'1 1.5
2017-Sep-17 20:09N 40°42' W 074°01'0 0.0
2017-Sep-17 19:57N 40°42' W 074°01'0 0.7
2017-Sep-17 19:30N 40°42' W 074°01'1 2.0
2017-Sep-17 19:00N 40°42' W 074°02'0 0.7
2017-Sep-17 18:28N 40°42' W 074°02'1 1.4
2017-Sep-17 17:59N 40°42' W 074°01'1 1.9
2017-Sep-17 17:29N 40°41' W 074°01'1 2.5
2017-Sep-17 17:00N 40°41' W 074°02'1 2.0
2017-Sep-17 16:30N 40°42' W 074°02'1 0.1
2017-Sep-17 02:39N 40°42' W 074°01'0 2.9
2017-Sep-17 02:30N 40°42' W 074°01'1 2.3
2017-Sep-17 02:00N 40°41' W 074°03'2 4.5
2017-Sep-17 01:29N 40°42' W 073°60'1 1.5
2017-Sep-17 00:56N 40°42' W 074°01'0 0.5
2017-Sep-17 00:30N 40°42' W 074°01'0 0.8
2017-Sep-17 00:00N 40°42' W 074°02'1 2.3
2017-Sep-16 23:24N 40°41' W 074°02'1 3.4
2017-Sep-16 23:00N 40°42' W 074°00'0 0.9
2017-Sep-16 22:30N 40°42' W 074°01'0 0.3
2017-Sep-16 22:00N 40°42' W 074°01'1 2.1
2017-Sep-16 21:30N 40°41' W 074°02'1 1.4
2017-Sep-16 20:54N 40°41' W 074°02'1 2.0
2017-Sep-16 20:30N 40°41' W 074°02'1 2.1
2017-Sep-16 19:59N 40°42' W 074°01'1 1.4
2017-Sep-16 19:29N 40°42' W 074°00'2 3.7
2017-Sep-16 19:00N 40°41' W 074°02'0 0.9
2017-Sep-16 18:30N 40°41' W 074°02'1 1.9
2017-Sep-16 17:58N 40°42' W 074°01'0 0.5
2017-Sep-16 17:30N 40°42' W 074°01'1 1.6
2017-Sep-16 16:59N 40°41' W 074°01'1 2.6
2017-Sep-16 16:30N 40°41' W 074°02'2 3.3
2017-Sep-16 16:00N 40°42' W 074°01'0 0.0
2017-Sep-16 03:02N 40°42' W 074°01'0 0.0
2017-Sep-16 02:59N 40°42' W 074°01'0 1.0
2017-Sep-16 02:31N 40°42' W 074°02'1 2.2
2017-Sep-16 01:59N 40°41' W 074°02'2 4.7
2017-Sep-16 01:30N 40°42' W 073°60'1 1.8
2017-Sep-16 00:58N 40°42' W 074°01'0 0.6
2017-Sep-16 00:30N 40°42' W 074°01'0 0.9
2017-Sep-16 00:00N 40°42' W 074°00'2 3.3
2017-Sep-15 23:31N 40°41' W 074°02'1 1.7
2017-Sep-15 23:00N 40°41' W 074°03'1 3.0
2017-Sep-15 22:30N 40°42' W 074°01'0 0.0
2017-Sep-15 21:59N 40°42' W 074°01'1 1.7
2017-Sep-15 21:30N 40°41' W 074°01'1 2.3
2017-Sep-15 21:00N 40°41' W 074°02'1 2.1
2017-Sep-15 20:29N 40°42' W 074°01'0 0.0
2017-Sep-15 19:59N 40°42' W 074°01'1 1.4
2017-Sep-15 19:27N 40°42' W 073°60'2 4.5
2017-Sep-15 19:01N 40°41' W 074°02'1 1.8
2017-Sep-15 18:31N 40°42' W 074°01'0 0.9
2017-Sep-15 18:00N 40°42' W 074°01'0 0.0
2017-Sep-15 02:31N 40°42' W 074°01'0 0.7
2017-Sep-15 02:29N 40°42' W 074°01'1 2.0
2017-Sep-15 02:00N 40°42' W 074°02'0 0.9
2017-Sep-15 01:30N 40°41' W 074°02'1 1.6
2017-Sep-15 00:58N 40°42' W 074°01'0 0.1
2017-Sep-15 00:29N 40°42' W 074°01'0 0.8
2017-Sep-15 00:00N 40°42' W 074°00'1 2.2
2017-Sep-14 23:30N 40°42' W 074°02'1 2.4
2017-Sep-14 23:00N 40°41' W 074°02'1 2.4
2017-Sep-14 22:26N 40°42' W 074°01'0 0.0
2017-Sep-14 21:59N 40°42' W 074°01'1 1.2
2017-Sep-14 21:30N 40°43' W 074°01'2 3.3
2017-Sep-14 21:00N 40°41' W 074°02'1 2.7
2017-Sep-14 20:30N 40°42' W 074°01'0 0.0
2017-Sep-14 20:00N 40°42' W 074°01'0 1.0
2017-Sep-14 19:30N 40°42' W 074°01'0 0.9
2017-Sep-14 19:00N 40°42' W 074°02'1 1.3
2017-Sep-14 18:30N 40°42' W 074°02'1 1.1
2017-Sep-14 17:59N 40°42' W 074°01'0 0.0
2017-Sep-14 03:15N 40°42' W 074°01'0 0.8
2017-Sep-14 03:00N 40°42' W 074°01'1 2.4
2017-Sep-14 02:30N 40°41' W 074°02'0 0.8
2017-Sep-14 02:01N 40°41' W 074°02'1 2.8
2017-Sep-14 01:31N 40°42' W 074°02'0 0.9
2017-Sep-14 01:00N 40°42' W 074°01'0 0.0
2017-Sep-14 00:30N 40°42' W 074°01'0 0.8
2017-Sep-14 00:00N 40°42' W 074°00'1 2.8
2017-Sep-13 23:31N 40°41' W 074°01'1 2.2
2017-Sep-13 23:00N 40°41' W 074°03'2 3.2
2017-Sep-13 22:30N 40°42' W 074°01'0 0.0
2017-Sep-13 21:59N 40°42' W 074°01'1 1.7
2017-Sep-13 21:30N 40°41' W 074°01'1 2.6
2017-Sep-13 20:58N 40°41' W 074°02'1 3.0
2017-Sep-13 20:29N 40°42' W 074°01'0 0.0
2017-Sep-13 19:59N 40°42' W 074°01'0 0.8
2017-Sep-13 19:30N 40°42' W 074°01'1 2.2
2017-Sep-13 19:00N 40°41' W 074°02'1 1.8
2017-Sep-13 18:31N 40°42' W 074°01'0 0.0
2017-Sep-13 00:53N 40°42' W 074°01'0 0.4
2017-Sep-13 00:30N 40°42' W 074°01'1 1.5
2017-Sep-13 00:00N 40°43' W 074°02'1 2.7
2017-Sep-12 23:30N 40°41' W 074°02'1 1.7
2017-Sep-12 23:00N 40°42' W 074°01'0 0.8
2017-Sep-12 22:29N 40°42' W 074°01'0 0.8
2017-Sep-12 22:00N 40°42' W 074°01'1 1.5
2017-Sep-12 21:28N 40°41' W 074°01'0 0.0
2017-Sep-12 20:58N 40°41' W 074°01'0 0.0
2017-Sep-12 20:28N 40°41' W 074°01'0 0.0
2017-Sep-12 19:58N 40°41' W 074°01'0 0.0
2017-Sep-12 19:28N 40°41' W 074°01'0 0.0
2017-Sep-12 18:58N 40°41' W 074°01'0 0.0
2017-Sep-12 18:28N 40°41' W 074°01'0 0.1
2017-Sep-12 18:00N 40°41' W 074°01'1 2.5
2017-Sep-12 17:30N 40°42' W 074°01'0 0.0
2017-Sep-12 02:23N 40°42' W 074°01'0 0.0
2017-Sep-12 01:59N 40°42' W 074°01'0 0.0
2017-Sep-12 01:29N 40°42' W 074°01'0 0.0
2017-Sep-12 00:59N 40°42' W 074°01'0 0.0
2017-Sep-12 00:30N 40°42' W 074°01'1 1.7
2017-Sep-12 00:00N 40°43' W 074°02'1 2.5
2017-Sep-11 23:30N 40°41' W 074°02'0 0.4
2017-Sep-11 23:00N 40°41' W 074°02'1 2.6
2017-Sep-11 22:28N 40°42' W 074°01'0 0.0
2017-Sep-11 21:58N 40°42' W 074°01'0 0.7
2017-Sep-11 21:30N 40°42' W 074°01'2 2.9
2017-Sep-11 20:59N 40°41' W 074°03'2 3.3
2017-Sep-11 20:29N 40°42' W 074°01'0 0.0
2017-Sep-11 19:59N 40°42' W 074°01'0 0.9
2017-Sep-11 19:28N 40°42' W 074°00'1 2.6
2017-Sep-11 19:00N 40°42' W 074°02'0 0.5
2017-Sep-11 18:30N 40°42' W 074°02'1 1.0
2017-Sep-11 17:58N 40°42' W 074°01'0 0.0
2017-Sep-11 00:36N 40°42' W 074°01'0 0.0
2017-Sep-11 00:30N 40°42' W 074°01'0 0.9
2017-Sep-10 23:59N 40°42' W 074°02'1 2.2
2017-Sep-10 23:30N 40°41' W 074°01'1 2.0
2017-Sep-10 23:00N 40°41' W 074°03'2 3.0
2017-Sep-10 22:30N 40°42' W 074°01'0 0.1
2017-Sep-10 21:57N 40°42' W 074°01'1 2.6
2017-Sep-10 21:30N 40°41' W 074°01'1 2.0
2017-Sep-10 20:57N 40°41' W 074°02'1 2.8
2017-Sep-10 20:25N 40°42' W 074°01'0 0.0
2017-Sep-10 19:58N 40°42' W 074°01'1 2.3
2017-Sep-10 19:30N 40°42' W 074°02'1 1.2
2017-Sep-10 19:00N 40°41' W 074°02'1 2.6
2017-Sep-10 18:30N 40°42' W 074°02'0 0.7
2017-Sep-10 17:50N 40°42' W 074°01'1 1.5
2017-Sep-10 17:30N 40°42' W 074°01'  
Track history (hours):
 
Tides and Currents Weather Stations Pressure Air Temp Water Temp Dewpoint Dewpoint Depression Visibility Wind Speed Wind Dir Waves Ship Positions

Clipper City

Owner: ESV Sailing LLC - Manhattan By Sail, New York, NY. More information available from US FCC via Universal Licensing System and Coast Guard Vessel Documentation Center.

Last reported at 2017-Sep-20 17:12 UTC. Time now 2017-Sep-21 15:42 UTC.
Position N 40°42' W 074°01'.

Length 35 m.

Type: Sailing vessel. MMSI: 367408230.

Date/timePositionNaut miles runAvg speedWind from/ knotsBaromVisibWave heightAir tempDewpointWater temp
2017-Sep-20 17:12N 40°42' W 074°01'1 3.0
2017-Sep-20 17:00N 40°42' W 074°00'2 4.8
2017-Sep-20 16:30N 40°44' W 074°01'1 1.2
2017-Sep-20 16:00N 40°44' W 074°01'2 2.9
2017-Sep-20 15:28N 40°42' W 074°01'0 0.0
2017-Sep-20 14:58N 40°42' W 074°01'0 0.0
2017-Sep-19 23:16N 40°42' W 074°01'1 2.5
2017-Sep-19 23:00N 40°42' W 074°02'1 1.3
2017-Sep-19 22:30N 40°42' W 074°01'0 0.0
2017-Sep-19 22:00N 40°42' W 074°01'0 0.0
2017-Sep-19 21:30N 40°42' W 074°01'0 0.0
2017-Sep-19 21:00N 40°42' W 074°01'0 0.0
2017-Sep-19 20:30N 40°42' W 074°01'0 0.0
2017-Sep-19 20:00N 40°42' W 074°01'1 1.8
2017-Sep-19 19:30N 40°42' W 074°02'1 1.5
2017-Sep-19 18:54N 40°41' W 074°02'2 4.1
2017-Sep-19 18:30N 40°42' W 074°01'0 0.8
2017-Sep-19 17:59N 40°42' W 074°01'0 0.0
2017-Sep-19 17:26N 40°42' W 074°01'0 0.0
2017-Sep-19 01:35N 40°42' W 074°01'0 0.9
2017-Sep-19 01:29N 40°42' W 074°01'1 1.3
2017-Sep-19 01:00N 40°42' W 074°02'1 2.3
2017-Sep-19 00:30N 40°41' W 074°02'0 0.3
2017-Sep-18 23:59N 40°41' W 074°02'1 2.4
2017-Sep-18 23:30N 40°42' W 074°02'0 0.8
2017-Sep-18 22:53N 40°42' W 074°01'0 0.0
2017-Sep-18 22:29N 40°42' W 074°01'0 0.5
2017-Sep-18 22:00N 40°42' W 074°01'1 1.7
2017-Sep-18 21:30N 40°41' W 074°01'1 2.6
2017-Sep-18 21:00N 40°41' W 074°02'2 2.8
2017-Sep-18 20:28N 40°42' W 074°01'0 0.0
2017-Sep-18 19:58N 40°42' W 074°01'1 1.4
2017-Sep-18 19:30N 40°42' W 074°00'2 3.3
2017-Sep-18 19:00N 40°41' W 074°02'1 2.9
2017-Sep-18 18:30N 40°42' W 074°01'0 0.4
2017-Sep-18 17:59N 40°42' W 074°01'0 0.0
2017-Sep-18 17:30N 40°42' W 074°01'2 2.8
2017-Sep-18 16:58N 40°41' W 074°02'2 3.2
2017-Sep-18 16:30N 40°42' W 074°01'1 1.4
2017-Sep-18 16:00N 40°41' W 074°01'1 1.8
2017-Sep-18 15:30N 40°42' W 074°01'1 0.9
2017-Sep-18 14:58N 40°42' W 074°01'0 0.0
2017-Sep-18 00:30N 40°42' W 074°01'1 1.6
2017-Sep-18 00:00N 40°43' W 074°01'1 2.2
2017-Sep-17 23:30N 40°42' W 074°02'1 1.1
2017-Sep-17 23:00N 40°42' W 074°01'1 1.2
2017-Sep-17 22:29N 40°42' W 074°01'0 0.0
2017-Sep-17 21:58N 40°42' W 074°01'1 1.5
2017-Sep-17 21:30N 40°42' W 074°02'1 1.8
2017-Sep-17 20:59N 40°41' W 074°02'1 1.5
2017-Sep-17 20:09N 40°42' W 074°01'0 0.0
2017-Sep-17 19:57N 40°42' W 074°01'0 0.7
2017-Sep-17 19:30N 40°42' W 074°01'1 2.0
2017-Sep-17 19:00N 40°42' W 074°02'0 0.7
2017-Sep-17 18:28N 40°42' W 074°02'1 1.4
2017-Sep-17 17:59N 40°42' W 074°01'1 1.9
2017-Sep-17 17:29N 40°41' W 074°01'1 2.5
2017-Sep-17 17:00N 40°41' W 074°02'1 2.0
2017-Sep-17 16:30N 40°42' W 074°02'1 0.1
2017-Sep-17 02:39N 40°42' W 074°01'0 2.9
2017-Sep-17 02:30N 40°42' W 074°01'1 2.3
2017-Sep-17 02:00N 40°41' W 074°03'2 4.5
2017-Sep-17 01:29N 40°42' W 073°60'1 1.5
2017-Sep-17 00:56N 40°42' W 074°01'0 0.5
2017-Sep-17 00:30N 40°42' W 074°01'0 0.8
2017-Sep-17 00:00N 40°42' W 074°02'1 2.3
2017-Sep-16 23:24N 40°41' W 074°02'1 3.4
2017-Sep-16 23:00N 40°42' W 074°00'0 0.9
2017-Sep-16 22:30N 40°42' W 074°01'0 0.3
2017-Sep-16 22:00N 40°42' W 074°01'1 2.1
2017-Sep-16 21:30N 40°41' W 074°02'1 1.4
2017-Sep-16 20:54N 40°41' W 074°02'1 2.0
2017-Sep-16 20:30N 40°41' W 074°02'1 2.1
2017-Sep-16 19:59N 40°42' W 074°01'1 1.4
2017-Sep-16 19:29N 40°42' W 074°00'2 3.7
2017-Sep-16 19:00N 40°41' W 074°02'0 0.9
2017-Sep-16 18:30N 40°41' W 074°02'1 1.9
2017-Sep-16 17:58N 40°42' W 074°01'0 0.5
2017-Sep-16 17:30N 40°42' W 074°01'1 1.6
2017-Sep-16 16:59N 40°41' W 074°01'1 2.6
2017-Sep-16 16:30N 40°41' W 074°02'2 3.3
2017-Sep-16 16:00N 40°42' W 074°01'0 0.0
2017-Sep-16 03:02N 40°42' W 074°01'0 0.0
2017-Sep-16 02:59N 40°42' W 074°01'0 1.0
2017-Sep-16 02:31N 40°42' W 074°02'1 2.2
2017-Sep-16 01:59N 40°41' W 074°02'2 4.7
2017-Sep-16 01:30N 40°42' W 073°60'1 1.8
2017-Sep-16 00:58N 40°42' W 074°01'0 0.6
2017-Sep-16 00:30N 40°42' W 074°01'0 0.9
2017-Sep-16 00:00N 40°42' W 074°00'2 3.3
2017-Sep-15 23:31N 40°41' W 074°02'1 1.7
2017-Sep-15 23:00N 40°41' W 074°03'1 3.0
2017-Sep-15 22:30N 40°42' W 074°01'0 0.0
2017-Sep-15 21:59N 40°42' W 074°01'1 1.7
2017-Sep-15 21:30N 40°41' W 074°01'1 2.3
2017-Sep-15 21:00N 40°41' W 074°02'1 2.1
2017-Sep-15 20:29N 40°42' W 074°01'0 0.0
2017-Sep-15 19:59N 40°42' W 074°01'1 1.4
2017-Sep-15 19:27N 40°42' W 073°60'2 4.5
2017-Sep-15 19:01N 40°41' W 074°02'1 1.8
2017-Sep-15 18:31N 40°42' W 074°01'0 0.9
2017-Sep-15 18:00N 40°42' W 074°01'0 0.0
2017-Sep-15 02:31N 40°42' W 074°01'0 0.7
2017-Sep-15 02:29N 40°42' W 074°01'1 2.0
2017-Sep-15 02:00N 40°42' W 074°02'0 0.9
2017-Sep-15 01:30N 40°41' W 074°02'1 1.6
2017-Sep-15 00:58N 40°42' W 074°01'0 0.1
2017-Sep-15 00:29N 40°42' W 074°01'0 0.8
2017-Sep-15 00:00N 40°42' W 074°00'1 2.2
2017-Sep-14 23:30N 40°42' W 074°02'1 2.4
2017-Sep-14 23:00N 40°41' W 074°02'1 2.4
2017-Sep-14 22:26N 40°42' W 074°01'0 0.0
2017-Sep-14 21:59N 40°42' W 074°01'1 1.2
2017-Sep-14 21:30N 40°43' W 074°01'2 3.3
2017-Sep-14 21:00N 40°41' W 074°02'1 2.7
2017-Sep-14 20:30N 40°42' W 074°01'0 0.0
2017-Sep-14 20:00N 40°42' W 074°01'0 1.0
2017-Sep-14 19:30N 40°42' W 074°01'0 0.9
2017-Sep-14 19:00N 40°42' W 074°02'1 1.3
2017-Sep-14 18:30N 40°42' W 074°02'1 1.1
2017-Sep-14 17:59N 40°42' W 074°01'0 0.0
2017-Sep-14 03:15N 40°42' W 074°01'0 0.8
2017-Sep-14 03:00N 40°42' W 074°01'1 2.4
2017-Sep-14 02:30N 40°41' W 074°02'0 0.8
2017-Sep-14 02:01N 40°41' W 074°02'1 2.8
2017-Sep-14 01:31N 40°42' W 074°02'0 0.9
2017-Sep-14 01:00N 40°42' W 074°01'0 0.0
2017-Sep-14 00:30N 40°42' W 074°01'0 0.8
2017-Sep-14 00:00N 40°42' W 074°00'1 2.8
2017-Sep-13 23:31N 40°41' W 074°01'1 2.2
2017-Sep-13 23:00N 40°41' W 074°03'2 3.2
2017-Sep-13 22:30N 40°42' W 074°01'0 0.0
2017-Sep-13 21:59N 40°42' W 074°01'1 1.7
2017-Sep-13 21:30N 40°41' W 074°01'1 2.6
2017-Sep-13 20:58N 40°41' W 074°02'1 3.0
2017-Sep-13 20:29N 40°42' W 074°01'0 0.0
2017-Sep-13 19:59N 40°42' W 074°01'0 0.8
2017-Sep-13 19:30N 40°42' W 074°01'1 2.2
2017-Sep-13 19:00N 40°41' W 074°02'1 1.8
2017-Sep-13 18:31N 40°42' W 074°01'0 0.0
2017-Sep-13 00:53N 40°42' W 074°01'0 0.4
2017-Sep-13 00:30N 40°42' W 074°01'1 1.5
2017-Sep-13 00:00N 40°43' W 074°02'1 2.7
2017-Sep-12 23:30N 40°41' W 074°02'1 1.7
2017-Sep-12 23:00N 40°42' W 074°01'0 0.8
2017-Sep-12 22:29N 40°42' W 074°01'0 0.8
2017-Sep-12 22:00N 40°42' W 074°01'1 1.5
2017-Sep-12 21:28N 40°41' W 074°01'0 0.0
2017-Sep-12 20:58N 40°41' W 074°01'0 0.0
2017-Sep-12 20:28N 40°41' W 074°01'0 0.0
2017-Sep-12 19:58N 40°41' W 074°01'0 0.0
2017-Sep-12 19:28N 40°41' W 074°01'0 0.0
2017-Sep-12 18:58N 40°41' W 074°01'0 0.0
2017-Sep-12 18:28N 40°41' W 074°01'0 0.1
2017-Sep-12 18:00N 40°41' W 074°01'1 2.5
2017-Sep-12 17:30N 40°42' W 074°01'0 0.0
2017-Sep-12 02:23N 40°42' W 074°01'0 0.0
2017-Sep-12 01:59N 40°42' W 074°01'0 0.0
2017-Sep-12 01:29N 40°42' W 074°01'0 0.0
2017-Sep-12 00:59N 40°42' W 074°01'0 0.0
2017-Sep-12 00:30N 40°42' W 074°01'1 1.7
2017-Sep-12 00:00N 40°43' W 074°02'1 2.5
2017-Sep-11 23:30N 40°41' W 074°02'0 0.4
2017-Sep-11 23:00N 40°41' W 074°02'1 2.6
2017-Sep-11 22:28N 40°42' W 074°01'0 0.0
2017-Sep-11 21:58N 40°42' W 074°01'0 0.7
2017-Sep-11 21:30N 40°42' W 074°01'2 2.9
2017-Sep-11 20:59N 40°41' W 074°03'2 3.3
2017-Sep-11 20:29N 40°42' W 074°01'0 0.0
2017-Sep-11 19:59N 40°42' W 074°01'0 0.9
2017-Sep-11 19:28N 40°42' W 074°00'1 2.6
2017-Sep-11 19:00N 40°42' W 074°02'0 0.5
2017-Sep-11 18:30N 40°42' W 074°02'1 1.0
2017-Sep-11 17:58N 40°42' W 074°01'0 0.0
2017-Sep-11 00:36N 40°42' W 074°01'0 0.0
2017-Sep-11 00:30N 40°42' W 074°01'0 0.9
2017-Sep-10 23:59N 40°42' W 074°02'1 2.2
2017-Sep-10 23:30N 40°41' W 074°01'1 2.0
2017-Sep-10 23:00N 40°41' W 074°03'2 3.0
2017-Sep-10 22:30N 40°42' W 074°01'0 0.1
2017-Sep-10 21:57N 40°42' W 074°01'1 2.6
2017-Sep-10 21:30N 40°41' W 074°01'1 2.0
2017-Sep-10 20:57N 40°41' W 074°02'1 2.8
2017-Sep-10 20:25N 40°42' W 074°01'0 0.0
2017-Sep-10 19:58N 40°42' W 074°01'1 2.3
2017-Sep-10 19:30N 40°42' W 074°02'1 1.2
2017-Sep-10 19:00N 40°41' W 074°02'1 2.6
2017-Sep-10 18:30N 40°42' W 074°02'0 0.7
2017-Sep-10 17:50N 40°42' W 074°01'1 1.5
2017-Sep-10 17:30N 40°42' W 074°01'  

Dump ship's entire track history